Terminal Aerodrome Forecast
Issued by NWS

Current Version | Previous Version | Graphics & Text | Print | Product List | Glossary On
Versions: 1 2 3 4 5 6 7 8 9 10 11 12 13 14 15 16 17 18 19 20 21 22 23 24 25 26 27 28 29 30 31 32 33 34 35 36 37 38
710
FTUS41 KRNK 220520
TAFLWB
TAF
KLWB 220520Z 2206/2306 00000KT P6SM SCT040 BKN250
     FM220800 00000KT 4SM BR BKN025
      TEMPO 2208/2212 1SM BR SCT025
     FM221300 VRB03KT P6SM BKN080
     FM221800 25009KT P6SM VCTS SCT050CB BKN090
     FM230000 23005KT P6SM BKN070=

USA.gov is the U.S. government's official web portal to all federal, state and local government web resources and services.